Time,TemperatureF,DewpointF,PressureIn,WindDirection,WindDirectionDegrees,WindSpeedMPH,WindSpeedGustMPH,Humidity,HourlyPrecipIn,Conditions,Clouds,dailyrainin,SoftwareType,DateUTC
2013-06-16 00:01:00,58.6,54.1,29.98,South,178,0.0,0.0,85,0.00,,,0.00,meteobridge,2013-06-16 04:01:00,
2013-06-16 00:02:00,58.6,54.1,29.98,South,178,0.0,0.0,85,0.00,,,0.00,meteobridge,2013-06-16 04:02:00,
2013-06-16 00:06:00,58.6,54.1,29.98,South,178,0.0,0.0,85,0.00,,,0.00,meteobridge,2013-06-16 04:06:00,
2013-06-16 00:09:00,58.6,54.1,29.98,South,178,0.0,0.0,85,0.00,,,0.00,meteobridge,2013-06-16 04:09:00,
2013-06-16 00:14:00,58.6,54.1,29.98,South,178,0.0,0.0,85,0.00,,,0.00,meteobridge,2013-06-16 04:14:00,
2013-06-16 00:19:00,58.5,54.0,29.98,South,178,0.0,0.0,85,0.00,,,0.00,meteobridge,2013-06-16 04:19:00,
2013-06-16 00:24:00,58.5,53.6,29.98,South,178,0.0,0.0,84,0.00,,,0.00,meteobridge,2013-06-16 04:24:00,
2013-06-16 00:30:00,58.5,53.6,29.98,South,178,0.0,0.0,84,0.00,,,0.00,meteobridge,2013-06-16 04:30:00,
2013-06-16 00:35:00,58.3,53.8,29.97,South,178,0.0,0.0,85,0.00,,,0.00,meteobridge,2013-06-16 04:35:00,
2013-06-16 00:41:00,57.9,53.4,29.97,South,178,0.0,0.0,85,0.00,,,0.00,meteobridge,2013-06-16 04:41:00,
2013-06-16 00:46:00,57.7,53.6,29.98,South,178,0.0,0.0,86,0.00,,,0.00,meteobridge,2013-06-16 04:46:00,
2013-06-16 00:51:00,57.4,53.2,29.98,South,178,0.0,0.0,86,0.00,,,0.00,meteobridge,2013-06-16 04:51:00,
2013-06-16 00:57:00,57.0,53.2,29.98,South,178,0.0,0.0,87,0.00,,,0.00,meteobridge,2013-06-16 04:57:00,
2013-06-16 01:02:00,56.8,53.1,29.98,South,178,0.0,0.0,87,0.00,,,0.00,meteobridge,2013-06-16 05:02:00,
2013-06-16 01:08:00,56.7,53.1,29.98,South,178,0.0,0.0,88,0.00,,,0.00,meteobridge,2013-06-16 05:08:00,
2013-06-16 01:13:00,56.5,52.9,29.98,South,178,0.0,0.0,88,0.00,,,0.00,meteobridge,2013-06-16 05:13:00,
2013-06-16 01:19:00,56.1,52.9,29.98,South,178,0.0,0.0,89,0.00,,,0.00,meteobridge,2013-06-16 05:19:00,
2013-06-16 01:25:00,55.9,52.7,29.98,South,178,0.0,0.0,89,0.00,,,0.00,meteobridge,2013-06-16 05:25:00,
2013-06-16 01:30:00,55.9,53.1,29.98,South,178,0.0,0.0,90,0.00,,,0.00,meteobridge,2013-06-16 05:30:00,
2013-06-16 01:35:00,55.8,52.5,29.98,South,178,0.0,0.0,89,0.00,,,0.00,meteobridge,2013-06-16 05:35:00,
2013-06-16 01:40:00,55.8,52.9,29.98,South,178,0.0,0.0,90,0.00,,,0.00,meteobridge,2013-06-16 05:40:00,
2013-06-16 01:46:00,55.6,52.7,29.98,South,178,0.0,0.0,90,0.00,,,0.00,meteobridge,2013-06-16 05:46:00,
2013-06-16 01:52:00,55.4,52.5,29.98,South,178,0.0,0.0,90,0.00,,,0.00,meteobridge,2013-06-16 05:52:00,
2013-06-16 01:57:00,55.2,52.3,29.98,South,178,0.0,0.0,90,0.00,,,0.00,meteobridge,2013-06-16 05:57:00,
2013-06-16 02:03:00,55.2,52.3,29.98,South,178,0.0,0.0,90,0.00,,,0.00,meteobridge,2013-06-16 06:03:00,
2013-06-16 02:08:00,55.0,52.2,29.98,South,178,0.0,0.0,90,0.00,,,0.00,meteobridge,2013-06-16 06:08:00,
2013-06-16 02:14:00,55.0,52.2,29.99,South,178,0.0,0.0,90,0.00,,,0.00,meteobridge,2013-06-16 06:14:00,
2013-06-16 02:19:00,55.0,52.2,29.99,South,178,0.0,0.0,90,0.00,,,0.00,meteobridge,2013-06-16 06:19:00,
2013-06-16 02:25:00,54.9,52.0,29.99,South,178,0.0,0.0,90,0.00,,,0.00,meteobridge,2013-06-16 06:25:00,
2013-06-16 02:30:00,54.7,52.2,29.99,South,178,0.0,0.0,91,0.00,,,0.00,meteobridge,2013-06-16 06:30:00,
2013-06-16 02:35:00,54.5,52.0,29.99,South,178,0.0,0.0,91,0.00,,,0.00,meteobridge,2013-06-16 06:35:00,
2013-06-16 02:41:00,54.3,51.8,29.99,South,178,0.0,0.0,91,0.00,,,0.00,meteobridge,2013-06-16 06:41:00,
2013-06-16 02:46:00,54.1,51.6,29.99,South,178,0.0,0.0,91,0.00,,,0.00,meteobridge,2013-06-16 06:46:00,
2013-06-16 02:51:00,54.1,51.6,29.98,South,178,0.0,0.0,91,0.00,,,0.00,meteobridge,2013-06-16 06:51:00,
2013-06-16 02:57:00,54.0,51.4,29.99,South,178,0.0,0.0,91,0.00,,,0.00,meteobridge,2013-06-16 06:57:00,
2013-06-16 03:02:00,53.8,51.3,29.99,South,178,0.0,0.0,91,0.00,,,0.00,meteobridge,2013-06-16 07:02:00,
2013-06-16 03:07:00,53.8,51.3,29.99,South,178,0.0,0.0,91,0.00,,,0.00,meteobridge,2013-06-16 07:07:00,
2013-06-16 03:12:00,53.6,51.3,29.98,South,178,0.0,0.0,92,0.00,,,0.00,meteobridge,2013-06-16 07:12:00,
2013-06-16 03:18:00,53.4,51.1,29.99,South,178,0.0,0.0,92,0.00,,,0.00,meteobridge,2013-06-16 07:18:00,
2013-06-16 03:23:00,53.4,51.1,29.99,South,178,0.0,0.0,92,0.00,,,0.00,meteobridge,2013-06-16 07:23:00,
2013-06-16 03:28:00,53.2,50.9,29.99,South,178,0.0,0.0,92,0.00,,,0.00,meteobridge,2013-06-16 07:28:00,
2013-06-16 03:33:00,53.2,51.3,29.98,South,178,0.0,0.0,93,0.00,,,0.00,meteobridge,2013-06-16 07:33:00,
2013-06-16 03:39:00,53.1,51.1,29.98,South,178,0.0,0.0,93,0.00,,,0.00,meteobridge,2013-06-16 07:39:00,
2013-06-16 03:44:00,53.1,51.1,29.98,South,178,0.0,0.0,93,0.00,,,0.00,meteobridge,2013-06-16 07:44:00,
2013-06-16 03:49:00,53.1,51.1,29.98,South,178,0.0,0.0,93,0.00,,,0.00,meteobridge,2013-06-16 07:49:00,
2013-06-16 03:55:00,52.9,50.9,29.98,South,178,0.0,0.0,93,0.00,,,0.00,meteobridge,2013-06-16 07:55:00,
2013-06-16 04:01:00,52.9,50.9,29.98,South,178,0.0,0.0,93,0.00,,,0.00,meteobridge,2013-06-16 08:01:00,
2013-06-16 04:06:00,52.9,50.9,29.98,South,178,0.0,0.0,93,0.00,,,0.00,meteobridge,2013-06-16 08:06:00,
2013-06-16 04:11:00,52.9,50.9,29.98,South,178,0.0,0.0,93,0.00,,,0.00,meteobridge,2013-06-16 08:11:00,
2013-06-16 04:16:00,52.9,50.9,29.98,South,178,0.0,0.0,93,0.00,,,0.00,meteobridge,2013-06-16 08:16:00,
2013-06-16 04:22:00,52.9,50.9,29.98,South,178,0.0,0.0,93,0.00,,,0.00,meteobridge,2013-06-16 08:22:00,
2013-06-16 04:27:00,52.9,51.3,29.98,South,178,0.0,0.0,94,0.00,,,0.00,meteobridge,2013-06-16 08:27:00,
2013-06-16 04:32:00,52.9,51.3,29.98,South,178,0.0,0.0,94,0.00,,,0.00,meteobridge,2013-06-16 08:32:00,
2013-06-16 04:38:00,52.9,51.3,29.98,South,178,0.0,0.0,94,0.00,,,0.00,meteobridge,2013-06-16 08:38:00,
2013-06-16 04:43:00,52.9,51.3,29.98,South,178,0.0,0.0,94,0.00,,,0.00,meteobridge,2013-06-16 08:43:00,
2013-06-16 04:48:00,52.9,51.3,29.98,South,178,0.0,0.0,94,0.00,,,0.00,meteobridge,2013-06-16 08:48:00,
2013-06-16 04:54:00,52.7,50.7,29.97,South,178,0.0,0.0,93,0.00,,,0.00,meteobridge,2013-06-16 08:54:00,
2013-06-16 04:59:00,52.5,50.5,29.97,South,178,0.0,0.0,93,0.00,,,0.00,meteobridge,2013-06-16 08:59:00,
2013-06-16 05:05:00,52.5,50.5,29.97,South,178,0.0,0.0,93,0.00,,,0.00,meteobridge,2013-06-16 09:05:00,
2013-06-16 05:10:00,52.5,50.5,29.97,South,178,0.0,0.0,93,0.00,,,0.00,meteobridge,2013-06-16 09:10:00,
2013-06-16 05:15:00,52.5,50.5,29.97,South,178,0.0,0.0,93,0.00,,,0.00,meteobridge,2013-06-16 09:15:00,
2013-06-16 05:21:00,52.5,50.5,29.98,South,178,0.0,0.0,93,0.00,,,0.00,meteobridge,2013-06-16 09:21:00,
2013-06-16 05:26:00,52.5,50.9,29.98,South,178,0.0,0.0,94,0.00,,,0.00,meteobridge,2013-06-16 09:26:00,
2013-06-16 05:31:00,52.3,50.7,29.98,South,178,0.0,0.0,94,0.00,,,0.00,meteobridge,2013-06-16 09:31:00,
2013-06-16 05:36:00,52.3,50.7,29.98,South,178,0.0,0.0,94,0.00,,,0.00,meteobridge,2013-06-16 09:36:00,
2013-06-16 05:42:00,52.3,50.7,29.99,South,178,0.0,0.0,94,0.00,,,0.00,meteobridge,2013-06-16 09:42:00,
2013-06-16 05:47:00,52.3,50.7,29.99,South,178,0.0,0.0,94,0.00,,,0.00,meteobridge,2013-06-16 09:47:00,
2013-06-16 05:52:00,52.3,50.9,29.98,South,178,0.0,0.0,95,0.00,,,0.00,meteobridge,2013-06-16 09:52:00,
2013-06-16 05:57:00,52.5,51.1,29.98,South,178,0.0,0.0,95,0.00,,,0.00,meteobridge,2013-06-16 09:57:00,
2013-06-16 06:03:00,52.5,51.1,29.98,South,178,0.0,0.0,95,0.00,,,0.00,meteobridge,2013-06-16 10:03:00,
2013-06-16 06:09:00,52.7,51.6,29.98,South,178,0.0,0.0,96,0.00,,,0.00,meteobridge,2013-06-16 10:09:00,
2013-06-16 06:15:00,52.9,51.8,29.98,South,178,0.0,0.0,96,0.00,,,0.00,meteobridge,2013-06-16 10:15:00,
2013-06-16 06:20:00,52.9,51.8,29.98,South,178,0.0,0.0,96,0.00,,,0.00,meteobridge,2013-06-16 10:20:00,
2013-06-16 06:25:00,53.1,52.0,29.98,South,178,0.0,0.0,96,0.00,,,0.00,meteobridge,2013-06-16 10:25:00,
2013-06-16 06:31:00,53.2,51.8,29.98,South,178,0.0,0.0,95,0.00,,,0.00,meteobridge,2013-06-16 10:31:00,
2013-06-16 06:36:00,53.2,52.2,29.98,South,178,0.0,0.0,96,0.00,,,0.00,meteobridge,2013-06-16 10:36:00,
2013-06-16 06:42:00,53.4,52.3,29.98,South,178,0.0,0.0,96,0.00,,,0.00,meteobridge,2013-06-16 10:42:00,
2013-06-16 06:47:00,53.8,52.7,29.98,South,178,0.0,0.0,96,0.00,,,0.00,meteobridge,2013-06-16 10:47:00,
2013-06-16 06:52:00,53.8,52.7,29.98,South,178,0.0,0.0,96,0.00,,,0.00,meteobridge,2013-06-16 10:52:00,
2013-06-16 06:58:00,54.0,52.9,29.98,South,178,0.0,0.0,96,0.00,,,0.00,meteobridge,2013-06-16 10:58:00,
2013-06-16 07:04:00,54.1,53.1,29.98,South,178,0.0,0.0,96,0.00,,,0.00,meteobridge,2013-06-16 11:04:00,
2013-06-16 07:10:00,54.3,53.2,29.98,South,178,0.0,0.0,96,0.00,,,0.00,meteobridge,2013-06-16 11:10:00,
2013-06-16 07:15:00,54.7,53.6,29.98,South,178,0.0,0.0,96,0.00,,,0.00,meteobridge,2013-06-16 11:15:00,
2013-06-16 07:21:00,54.9,54.0,29.98,South,178,0.0,0.0,97,0.00,,,0.00,meteobridge,2013-06-16 11:21:00,
2013-06-16 07:26:00,55.0,54.1,29.98,South,178,0.0,0.0,97,0.00,,,0.00,meteobridge,2013-06-16 11:26:00,
2013-06-16 07:31:00,55.0,54.1,29.98,South,178,0.0,0.0,97,0.00,,,0.00,meteobridge,2013-06-16 11:31:00,
2013-06-16 07:36:00,55.4,54.3,29.98,South,178,0.0,0.0,96,0.00,,,0.00,meteobridge,2013-06-16 11:36:00,
2013-06-16 07:41:00,55.8,54.7,29.98,South,178,0.0,0.0,96,0.00,,,0.00,meteobridge,2013-06-16 11:41:00,
2013-06-16 07:47:00,56.1,55.0,29.98,South,178,0.0,0.0,96,0.00,,,0.00,meteobridge,2013-06-16 11:47:00,
2013-06-16 07:52:00,56.3,54.9,29.98,South,178,0.0,0.0,95,0.00,,,0.00,meteobridge,2013-06-16 11:52:00,
2013-06-16 07:58:00,56.7,55.2,29.97,South,178,0.0,0.0,95,0.00,,,0.00,meteobridge,2013-06-16 11:58:00,
2013-06-16 08:03:00,56.8,55.2,29.97,South,178,0.0,0.0,94,0.00,,,0.00,meteobridge,2013-06-16 12:03:00,
2013-06-16 08:08:00,57.0,55.2,29.98,South,178,0.0,0.0,94,0.00,,,0.00,meteobridge,2013-06-16 12:08:00,
2013-06-16 08:14:00,57.6,55.8,29.97,South,178,0.0,0.0,94,0.00,,,0.00,meteobridge,2013-06-16 12:14:00,
2013-06-16 08:19:00,57.9,56.1,29.97,South,178,0.0,0.0,94,0.00,,,0.00,meteobridge,2013-06-16 12:19:00,
2013-06-16 08:24:00,58.5,55.8,29.97,South,178,0.0,0.0,91,0.00,,,0.00,meteobridge,2013-06-16 12:24:00,
2013-06-16 08:30:00,59.2,56.3,29.98,South,178,0.0,0.0,90,0.00,,,0.00,meteobridge,2013-06-16 12:30:00,
2013-06-16 08:35:00,59.7,56.5,29.97,South,178,0.0,0.0,89,0.00,,,0.00,meteobridge,2013-06-16 12:35:00,
2013-06-16 08:40:00,60.3,56.7,29.97,South,178,0.0,0.0,88,0.00,,,0.00,meteobridge,2013-06-16 12:40:00,
2013-06-16 08:45:00,60.4,56.8,29.97,South,178,0.0,0.0,88,0.00,,,0.00,meteobridge,2013-06-16 12:45:00,
2013-06-16 08:51:00,61.2,57.6,29.97,South,178,0.0,0.0,88,0.00,,,0.00,meteobridge,2013-06-16 12:51:00,
2013-06-16 08:56:00,61.5,57.0,29.96,South,178,0.0,0.0,85,0.00,,,0.00,meteobridge,2013-06-16 12:56:00,
2013-06-16 09:01:00,62.1,57.2,29.96,South,178,0.0,0.0,84,0.00,,,0.00,meteobridge,2013-06-16 13:01:00,
2013-06-16 09:07:00,62.4,58.1,29.96,South,178,0.0,0.0,86,0.00,,,0.00,meteobridge,2013-06-16 13:07:00,
2013-06-16 09:12:00,63.0,58.1,29.96,South,178,0.0,0.0,84,0.00,,,0.00,meteobridge,2013-06-16 13:12:00,
2013-06-16 09:18:00,63.3,58.1,29.96,South,178,0.0,0.0,83,0.00,,,0.00,meteobridge,2013-06-16 13:18:00,
2013-06-16 09:23:00,63.7,58.5,29.96,South,178,0.0,0.0,83,0.00,,,0.00,meteobridge,2013-06-16 13:23:00,
2013-06-16 09:28:00,63.9,58.6,29.95,South,178,0.0,0.0,83,0.00,,,0.00,meteobridge,2013-06-16 13:28:00,
2013-06-16 09:33:00,64.0,59.2,29.95,South,178,0.0,0.0,84,0.00,,,0.00,meteobridge,2013-06-16 13:33:00,
2013-06-16 09:38:00,64.2,59.0,29.95,South,178,0.0,0.0,83,0.00,,,0.00,meteobridge,2013-06-16 13:38:00,
2013-06-16 09:43:00,64.6,59.0,29.94,South,178,0.0,0.0,82,0.00,,,0.00,meteobridge,2013-06-16 13:43:00,
2013-06-16 09:48:00,64.9,59.7,29.93,South,178,0.0,0.0,83,0.00,,,0.00,meteobridge,2013-06-16 13:48:00,
2013-06-16 09:53:00,65.3,59.0,29.94,South,178,0.0,0.0,80,0.00,,,0.00,meteobridge,2013-06-16 13:53:00,
2013-06-16 09:59:00,65.8,58.1,29.93,South,178,0.0,0.0,76,0.00,,,0.00,meteobridge,2013-06-16 13:59:00,
2013-06-16 10:04:00,66.4,58.6,29.93,South,178,0.0,0.0,76,0.00,,,0.00,meteobridge,2013-06-16 14:04:00,
2013-06-16 10:09:00,66.7,59.4,29.93,South,178,0.0,0.0,77,0.00,,,0.00,meteobridge,2013-06-16 14:09:00,
2013-06-16 10:14:00,66.9,59.2,29.93,South,178,0.0,0.0,76,0.00,,,0.00,meteobridge,2013-06-16 14:14:00,
2013-06-16 10:20:00,67.5,60.1,29.93,South,178,0.0,0.0,77,0.00,,,0.00,meteobridge,2013-06-16 14:20:00,
2013-06-16 10:25:00,67.8,58.5,29.93,SSW,194,0.0,0.0,72,0.00,,,0.00,meteobridge,2013-06-16 14:25:00,
2013-06-16 10:30:00,68.4,59.7,29.93,SW,216,0.0,0.0,74,0.00,,,0.00,meteobridge,2013-06-16 14:30:00,
2013-06-16 10:35:00,68.9,58.3,29.93,SW,216,0.0,0.0,69,0.00,,,0.00,meteobridge,2013-06-16 14:35:00,
2013-06-16 10:40:00,69.4,58.5,29.92,SSW,207,0.0,0.0,68,0.00,,,0.00,meteobridge,2013-06-16 14:40:00,
2013-06-16 10:46:00,70.2,58.3,29.92,SSW,203,0.0,0.0,66,0.00,,,0.00,meteobridge,2013-06-16 14:46:00,
2013-06-16 10:51:00,71.1,56.8,29.92,SSW,202,0.9,4.9,61,0.00,,,0.00,meteobridge,2013-06-16 14:51:00,
2013-06-16 10:56:00,71.6,56.5,29.92,South,188,2.9,2.9,59,0.00,,,0.00,meteobridge,2013-06-16 14:56:00,
2013-06-16 11:01:00,72.1,55.6,29.91,SSW,203,4.0,6.0,56,0.00,,,0.00,meteobridge,2013-06-16 15:01:00,
2013-06-16 11:07:00,72.7,56.1,29.91,SSW,205,4.0,4.0,56,0.00,,,0.00,meteobridge,2013-06-16 15:07:00,
2013-06-16 11:12:00,73.2,55.6,29.91,South,190,2.0,4.9,54,0.00,,,0.00,meteobridge,2013-06-16 15:12:00,
2013-06-16 11:17:00,73.6,53.8,29.91,South,182,4.9,6.9,50,0.00,,,0.00,meteobridge,2013-06-16 15:17:00,
2013-06-16 11:22:00,73.9,54.1,29.90,SSW,192,0.9,4.0,50,0.00,,,0.00,meteobridge,2013-06-16 15:22:00,
2013-06-16 11:27:00,74.1,54.3,29.90,WNW,288,0.0,4.9,50,0.00,,,0.00,meteobridge,2013-06-16 15:27:00,
2013-06-16 11:33:00,74.1,54.3,29.90,SW,216,0.9,6.0,50,0.00,,,0.00,meteobridge,2013-06-16 15:33:00,
2013-06-16 11:38:00,74.5,55.2,29.89,SSW,213,2.0,4.0,51,0.00,,,0.00,meteobridge,2013-06-16 15:38:00,
2013-06-16 11:43:00,74.8,55.6,29.89,SSE,167,6.0,6.0,51,0.00,,,0.00,meteobridge,2013-06-16 15:43:00,
2013-06-16 11:49:00,75.0,55.0,29.88,South,190,0.0,4.9,50,0.00,,,0.00,meteobridge,2013-06-16 15:49:00,
2013-06-16 11:54:00,75.4,55.9,29.88,SSW,201,2.9,8.1,51,0.00,,,0.00,meteobridge,2013-06-16 15:54:00,
2013-06-16 12:00:00,75.6,55.6,29.88,SSW,200,0.9,4.9,50,0.00,,,0.00,meteobridge,2013-06-16 16:00:00,
2013-06-16 12:05:00,75.7,55.2,29.88,SSW,213,2.9,6.0,49,0.00,,,0.00,meteobridge,2013-06-16 16:05:00,
2013-06-16 12:11:00,75.7,55.2,29.88,SW,217,2.0,6.9,49,0.00,,,0.00,meteobridge,2013-06-16 16:11:00,
2013-06-16 12:16:00,75.9,55.4,29.88,SSW,194,2.9,4.9,49,0.00,,,0.00,meteobridge,2013-06-16 16:16:00,
2013-06-16 12:21:00,76.3,56.3,29.88,SSW,201,2.0,8.9,50,0.00,,,0.00,meteobridge,2013-06-16 16:21:00,
2013-06-16 12:26:00,76.3,55.2,29.87,West,261,0.9,2.9,48,0.00,,,0.00,meteobridge,2013-06-16 16:26:00,
2013-06-16 12:32:00,76.5,55.9,29.87,NW,304,0.9,2.0,49,0.00,,,0.00,meteobridge,2013-06-16 16:32:00,
2013-06-16 12:37:00,76.5,54.7,29.87,SSW,207,0.9,2.9,47,0.00,,,0.00,meteobridge,2013-06-16 16:37:00,
2013-06-16 12:42:00,76.6,57.2,29.87,SSW,202,0.9,2.9,51,0.00,,,0.00,meteobridge,2013-06-16 16:42:00,
2013-06-16 12:48:00,76.6,54.3,29.86,SSW,213,0.9,4.0,46,0.00,,,0.00,meteobridge,2013-06-16 16:48:00,
2013-06-16 12:53:00,76.6,54.9,29.86,South,183,0.9,4.0,47,0.00,,,0.00,meteobridge,2013-06-16 16:53:00,
2013-06-16 12:58:00,76.6,56.1,29.86,WSW,248,0.0,0.9,49,0.00,,,0.00,meteobridge,2013-06-16 16:58:00,
2013-06-16 13:03:00,76.6,55.4,29.86,South,190,0.0,0.9,48,0.00,,,0.00,meteobridge,2013-06-16 17:03:00,
2013-06-16 13:09:00,76.3,55.2,29.86,South,188,2.0,4.0,48,0.00,,,0.00,meteobridge,2013-06-16 17:09:00,
2013-06-16 13:14:00,75.9,55.9,29.85,SSW,202,2.0,2.9,50,0.00,,,0.00,meteobridge,2013-06-16 17:14:00,
2013-06-16 13:19:00,75.6,55.6,29.85,SW,233,0.0,0.9,50,0.00,,,0.00,meteobridge,2013-06-16 17:19:00,
2013-06-16 13:24:00,75.4,55.4,29.85,SSW,199,0.9,2.0,50,0.00,,,0.00,meteobridge,2013-06-16 17:24:00,
2013-06-16 13:30:00,75.0,57.2,29.85,SSW,200,0.0,0.0,54,0.00,,,0.00,meteobridge,2013-06-16 17:30:00,
2013-06-16 13:35:00,74.7,57.4,29.84,SSW,198,0.0,0.9,55,0.00,,,0.00,meteobridge,2013-06-16 17:35:00,
2013-06-16 13:41:00,74.5,57.7,29.84,SSW,198,0.0,0.0,56,0.00,,,0.00,meteobridge,2013-06-16 17:41:00,
2013-06-16 13:46:00,74.1,58.5,29.83,SSW,198,0.0,0.0,58,0.00,,,0.00,meteobridge,2013-06-16 17:46:00,
2013-06-16 13:52:00,73.9,57.7,29.83,SSW,198,0.0,0.9,57,0.00,,,0.00,meteobridge,2013-06-16 17:52:00,
2013-06-16 13:57:00,73.9,58.6,29.83,SSW,200,0.0,0.0,59,0.00,,,0.00,meteobridge,2013-06-16 17:57:00,
2013-06-16 14:02:00,74.3,59.9,29.83,SSW,200,0.0,0.0,61,0.00,,,0.00,meteobridge,2013-06-16 18:02:00,
2013-06-16 14:07:00,74.5,58.3,29.82,SSW,198,0.0,2.0,57,0.00,,,0.00,meteobridge,2013-06-16 18:07:00,
2013-06-16 14:12:00,74.8,58.1,29.81,SSW,203,0.0,2.0,56,0.00,,,0.00,meteobridge,2013-06-16 18:12:00,
2013-06-16 14:17:00,75.0,59.7,29.81,SE,126,0.9,2.0,59,0.00,,,0.00,meteobridge,2013-06-16 18:17:00,
2013-06-16 14:23:00,75.4,58.6,29.81,SSW,210,0.0,2.0,56,0.00,,,0.00,meteobridge,2013-06-16 18:23:00,
2013-06-16 14:28:00,75.6,58.8,29.81,SSW,194,0.0,4.0,56,0.00,,,0.00,meteobridge,2013-06-16 18:28:00,
2013-06-16 14:33:00,75.7,59.0,29.80,SSW,194,0.9,4.9,56,0.00,,,0.00,meteobridge,2013-06-16 18:33:00,
2013-06-16 14:39:00,75.7,57.4,29.80,SSW,194,0.0,2.9,53,0.00,,,0.00,meteobridge,2013-06-16 18:39:00,
2013-06-16 14:44:00,75.7,57.9,29.80,SSW,197,0.0,2.9,54,0.00,,,0.00,meteobridge,2013-06-16 18:44:00,
2013-06-16 14:49:00,75.7,59.4,29.80,SSW,201,0.0,0.9,57,0.00,,,0.00,meteobridge,2013-06-16 18:49:00,
2013-06-16 14:55:00,75.7,59.0,29.80,SSW,201,0.0,0.9,56,0.00,,,0.00,meteobridge,2013-06-16 18:55:00,
2013-06-16 15:00:00,75.7,59.0,29.80,SSW,201,0.0,2.9,56,0.00,,,0.00,meteobridge,2013-06-16 19:00:00,
2013-06-16 15:06:00,75.9,58.6,29.79,WSW,239,0.0,0.9,55,0.00,,,0.00,meteobridge,2013-06-16 19:06:00,
2013-06-16 15:11:00,76.5,59.2,29.79,SSW,203,0.0,2.9,55,0.00,,,0.00,meteobridge,2013-06-16 19:11:00,
2013-06-16 15:16:00,77.2,59.2,29.78,SSW,196,0.9,2.9,54,0.00,,,0.00,meteobridge,2013-06-16 19:16:00,
2013-06-16 15:21:00,77.7,59.2,29.78,SSW,202,0.9,2.9,53,0.00,,,0.00,meteobridge,2013-06-16 19:21:00,
2013-06-16 15:27:00,78.4,59.4,29.78,SSW,200,2.9,4.9,52,0.00,,,0.00,meteobridge,2013-06-16 19:27:00,
2013-06-16 15:32:00,78.4,59.4,29.78,SSW,196,0.0,2.0,52,0.00,,,0.00,meteobridge,2013-06-16 19:32:00,
2013-06-16 15:37:00,78.4,57.7,29.78,South,183,2.0,2.9,49,0.00,,,0.00,meteobridge,2013-06-16 19:37:00,
2013-06-16 15:43:00,78.4,57.7,29.78,South,175,0.0,2.0,49,0.00,,,0.00,meteobridge,2013-06-16 19:43:00,
2013-06-16 15:48:00,78.4,58.8,29.78,SSW,196,0.0,0.0,51,0.00,,,0.00,meteobridge,2013-06-16 19:48:00,
2013-06-16 15:53:00,78.1,59.0,29.78,NW,304,0.0,2.0,52,0.00,,,0.00,meteobridge,2013-06-16 19:53:00,
2013-06-16 15:58:00,77.7,57.6,29.78,SSW,203,0.0,2.0,50,0.00,,,0.00,meteobridge,2013-06-16 19:58:00,
2013-06-16 16:04:00,77.4,57.7,29.79,SSW,204,0.0,2.0,51,0.00,,,0.00,meteobridge,2013-06-16 20:04:00,
2013-06-16 16:09:00,77.2,58.3,29.79,SW,223,0.9,2.0,52,0.00,,,0.00,meteobridge,2013-06-16 20:09:00,
2013-06-16 16:15:00,76.8,59.4,29.79,WNW,298,0.0,0.0,55,0.00,,,0.00,meteobridge,2013-06-16 20:15:00,
2013-06-16 16:20:00,76.6,59.7,29.78,SW,227,0.0,0.9,56,0.00,,,0.00,meteobridge,2013-06-16 20:20:00,
2013-06-16 16:26:00,76.5,59.5,29.78,SW,227,0.0,0.9,56,0.00,,,0.00,meteobridge,2013-06-16 20:26:00,
2013-06-16 16:31:00,76.3,61.0,29.78,SW,227,0.0,0.0,59,0.00,,,0.00,meteobridge,2013-06-16 20:31:00,
2013-06-16 16:36:00,75.9,59.2,29.78,SSW,200,0.0,2.0,56,0.00,,,0.00,meteobridge,2013-06-16 20:36:00,
2013-06-16 16:42:00,75.7,59.4,29.78,SSW,192,0.9,0.9,57,0.00,,,0.00,meteobridge,2013-06-16 20:42:00,
2013-06-16 16:47:00,75.7,59.9,29.78,SSW,192,0.0,0.9,58,0.00,,,0.00,meteobridge,2013-06-16 20:47:00,
2013-06-16 16:53:00,75.9,60.6,29.78,SSW,196,0.0,2.9,59,0.00,,,0.00,meteobridge,2013-06-16 20:53:00,
2013-06-16 16:58:00,76.3,61.3,29.77,SSW,207,0.0,2.0,60,0.00,,,0.00,meteobridge,2013-06-16 20:58:00,
2013-06-16 17:03:00,76.8,60.4,29.77,SSW,202,2.0,4.0,57,0.00,,,0.00,meteobridge,2013-06-16 21:03:00,
2013-06-16 17:09:00,77.4,61.9,29.77,SSW,197,2.0,4.0,59,0.00,,,0.00,meteobridge,2013-06-16 21:09:00,
2013-06-16 17:14:00,77.5,61.2,29.77,SW,215,0.0,4.0,57,0.00,,,0.00,meteobridge,2013-06-16 21:14:00,
2013-06-16 17:19:00,77.5,60.6,29.76,SSW,199,4.9,4.9,56,0.00,,,0.00,meteobridge,2013-06-16 21:19:00,
2013-06-16 17:25:00,77.4,60.4,29.76,SSE,168,0.9,6.9,56,0.00,,,0.00,meteobridge,2013-06-16 21:25:00,
2013-06-16 17:30:00,77.4,61.3,29.76,SSW,195,0.9,2.9,58,0.00,,,0.00,meteobridge,2013-06-16 21:30:00,
2013-06-16 17:35:00,77.5,60.6,29.76,SSW,210,2.0,6.9,56,0.00,,,0.00,meteobridge,2013-06-16 21:35:00,
2013-06-16 17:40:00,77.5,61.5,29.76,SW,223,0.0,6.0,58,0.00,,,0.00,meteobridge,2013-06-16 21:40:00,
2013-06-16 17:45:00,77.4,61.3,29.76,SSW,199,2.0,2.9,58,0.00,,,0.00,meteobridge,2013-06-16 21:45:00,
2013-06-16 17:51:00,77.2,61.3,29.75,SSW,205,2.0,6.0,58,0.00,,,0.00,meteobridge,2013-06-16 21:51:00,
2013-06-16 17:56:00,77.2,61.3,29.76,SSE,164,2.0,4.0,58,0.00,,,0.00,meteobridge,2013-06-16 21:56:00,
2013-06-16 18:02:00,76.8,61.3,29.76,SW,223,0.0,4.0,59,0.00,,,0.00,meteobridge,2013-06-16 22:02:00,
2013-06-16 18:07:00,76.8,61.3,29.76,SSW,198,2.9,2.9,59,0.00,,,0.00,meteobridge,2013-06-16 22:07:00,
2013-06-16 18:12:00,76.8,61.3,29.76,SSW,196,6.0,6.0,59,0.00,,,0.00,meteobridge,2013-06-16 22:12:00,
2013-06-16 18:17:00,76.8,61.9,29.76,West,275,2.9,4.0,60,0.00,,,0.00,meteobridge,2013-06-16 22:17:00,
2013-06-16 18:23:00,76.8,61.9,29.76,SSE,156,0.9,4.9,60,0.00,,,0.00,meteobridge,2013-06-16 22:23:00,
2013-06-16 18:28:00,76.6,61.7,29.76,SSW,198,2.0,6.0,60,0.00,,,0.00,meteobridge,2013-06-16 22:28:00,
2013-06-16 18:33:00,76.6,61.7,29.76,SSW,194,4.9,6.0,60,0.00,,,0.00,meteobridge,2013-06-16 22:33:00,
2013-06-16 18:39:00,76.5,61.5,29.76,NW,307,4.0,4.0,60,0.00,,,0.00,meteobridge,2013-06-16 22:39:00,
2013-06-16 18:44:00,76.5,61.5,29.76,SW,229,2.0,4.9,60,0.00,,,0.00,meteobridge,2013-06-16 22:44:00,
2013-06-16 18:49:00,76.5,62.1,29.76,SSW,198,2.0,2.9,61,0.00,,,0.00,meteobridge,2013-06-16 22:49:00,
2013-06-16 18:54:00,76.5,62.4,29.76,SW,236,0.0,2.0,62,0.00,,,0.00,meteobridge,2013-06-16 22:54:00,
2013-06-16 19:00:00,76.3,62.2,29.76,South,179,0.0,4.0,62,0.00,,,0.00,meteobridge,2013-06-16 23:00:00,
2013-06-16 19:05:00,76.3,62.2,29.76,WSW,245,0.0,0.9,62,0.00,,,0.00,meteobridge,2013-06-16 23:05:00,
2013-06-16 19:10:00,76.1,62.6,29.76,SSE,161,0.0,0.9,63,0.00,,,0.00,meteobridge,2013-06-16 23:10:00,
2013-06-16 19:15:00,75.9,62.4,29.76,SSW,202,0.0,2.9,63,0.00,,,0.00,meteobridge,2013-06-16 23:15:00,
2013-06-16 19:21:00,75.7,62.2,29.76,SSW,208,0.0,2.9,63,0.00,,,0.00,meteobridge,2013-06-16 23:21:00,
2013-06-16 19:26:00,75.7,62.8,29.76,SSW,198,0.0,2.9,64,0.00,,,0.00,meteobridge,2013-06-16 23:26:00,
2013-06-16 19:31:00,75.6,62.6,29.76,SSW,193,0.9,2.9,64,0.00,,,0.00,meteobridge,2013-06-16 23:31:00,
2013-06-16 19:36:00,75.6,62.6,29.76,SW,229,2.0,4.9,64,0.00,,,0.00,meteobridge,2013-06-16 23:36:00,
2013-06-16 19:42:00,75.4,62.8,29.76,SW,225,0.0,0.9,65,0.00,,,0.00,meteobridge,2013-06-16 23:42:00,
2013-06-16 19:47:00,75.4,62.8,29.77,NW,305,0.0,2.0,65,0.00,,,0.00,meteobridge,2013-06-16 23:47:00,
2013-06-16 19:52:00,75.2,62.6,29.77,SSW,211,2.0,2.9,65,0.00,,,0.00,meteobridge,2013-06-16 23:52:00,
2013-06-16 19:58:00,75.0,63.0,29.77,SW,227,0.9,2.0,66,0.00,,,0.00,meteobridge,2013-06-16 23:58:00,
2013-06-16 20:03:00,75.0,63.0,29.77,SSW,204,0.0,2.9,66,0.00,,,0.00,meteobridge,2013-06-17 00:03:00,
2013-06-16 20:08:00,74.8,62.8,29.77,SSW,192,0.0,6.0,66,0.00,,,0.00,meteobridge,2013-06-17 00:08:00,
2013-06-16 20:13:00,74.8,62.8,29.78,SW,230,0.0,2.0,66,0.00,,,0.00,meteobridge,2013-06-17 00:13:00,
2013-06-16 20:18:00,74.8,63.1,29.78,SSW,192,0.9,2.0,67,0.00,,,0.00,meteobridge,2013-06-17 00:18:00,
2013-06-16 20:24:00,74.8,63.1,29.78,West,262,0.0,2.0,67,0.00,,,0.00,meteobridge,2013-06-17 00:24:00,
2013-06-16 20:29:00,74.7,63.0,29.78,SSW,203,0.0,2.0,67,0.00,,,0.00,meteobridge,2013-06-17 00:29:00,
2013-06-16 20:34:00,74.7,63.3,29.79,SSW,210,0.0,0.9,68,0.00,,,0.00,meteobridge,2013-06-17 00:34:00,
2013-06-16 20:40:00,74.7,63.3,29.79,WNW,302,0.0,0.9,68,0.00,,,0.00,meteobridge,2013-06-17 00:40:00,
2013-06-16 20:45:00,74.5,63.1,29.79,NW,315,0.0,2.0,68,0.00,,,0.00,meteobridge,2013-06-17 00:45:00,
2013-06-16 20:50:00,74.5,63.7,29.80,NW,315,0.0,0.9,69,0.00,,,0.00,meteobridge,2013-06-17 00:50:00,
2013-06-16 20:56:00,74.5,63.7,29.80,NW,315,0.9,0.9,69,0.00,,,0.00,meteobridge,2013-06-17 00:56:00,
2013-06-16 21:01:00,74.3,63.5,29.80,NW,315,0.0,0.0,69,0.00,,,0.00,meteobridge,2013-06-17 01:01:00,
2013-06-16 21:06:00,74.1,63.3,29.80,West,280,0.0,2.0,69,0.00,,,0.00,meteobridge,2013-06-17 01:06:00,
2013-06-16 21:11:00,73.9,63.1,29.80,West,280,0.0,0.0,69,0.00,,,0.00,meteobridge,2013-06-17 01:11:00,
2013-06-16 21:16:00,73.9,63.1,29.80,West,280,0.0,0.0,69,0.00,,,0.00,meteobridge,2013-06-17 01:16:00,
2013-06-16 21:21:00,73.8,63.3,29.81,West,280,0.0,0.0,70,0.00,,,0.00,meteobridge,2013-06-17 01:21:00,
2013-06-16 21:27:00,73.6,63.7,29.81,West,280,0.0,0.0,71,0.00,,,0.00,meteobridge,2013-06-17 01:27:00,
2013-06-16 21:32:00,73.2,63.3,29.82,West,280,0.0,0.0,71,0.00,,,0.00,meteobridge,2013-06-17 01:32:00,
2013-06-16 21:37:00,73.0,63.5,29.82,West,280,0.0,0.0,72,0.00,,,0.00,meteobridge,2013-06-17 01:37:00,
2013-06-16 21:42:00,72.7,63.1,29.82,West,280,0.0,0.0,72,0.00,,,0.00,meteobridge,2013-06-17 01:42:00,
2013-06-16 21:48:00,72.5,63.3,29.82,WNW,295,0.0,0.0,73,0.00,,,0.00,meteobridge,2013-06-17 01:48:00,
2013-06-16 21:53:00,72.3,63.1,29.82,WSW,248,0.0,2.0,73,0.00,,,0.00,meteobridge,2013-06-17 01:53:00,
2013-06-16 21:58:00,72.1,63.3,29.83,WSW,248,0.0,0.9,74,0.00,,,0.00,meteobridge,2013-06-17 01:58:00,
2013-06-16 22:03:00,72.0,63.1,29.82,SSW,212,0.0,0.0,74,0.00,,,0.00,meteobridge,2013-06-17 02:03:00,
2013-06-16 22:08:00,71.8,63.5,29.83,North,355,2.0,2.0,75,0.00,,,0.00,meteobridge,2013-06-17 02:08:00,
2013-06-16 22:13:00,71.4,62.8,29.83,NW,304,0.0,2.9,74,0.00,,,0.00,meteobridge,2013-06-17 02:13:00,
2013-06-16 22:18:00,71.4,63.1,29.83,WNW,303,0.0,0.0,75,0.00,,,0.00,meteobridge,2013-06-17 02:18:00,
2013-06-16 22:24:00,71.4,63.1,29.83,West,272,0.0,0.0,75,0.00,,,0.00,meteobridge,2013-06-17 02:24:00,
2013-06-16 22:29:00,71.2,62.6,29.83,West,272,0.0,0.0,74,0.00,,,0.00,meteobridge,2013-06-17 02:29:00,
2013-06-16 22:35:00,71.1,62.8,29.83,West,272,0.0,0.0,75,0.00,,,0.00,meteobridge,2013-06-17 02:35:00,
2013-06-16 22:41:00,70.9,62.6,29.83,West,272,0.0,0.9,75,0.00,,,0.00,meteobridge,2013-06-17 02:41:00,
2013-06-16 22:46:00,70.5,62.6,29.83,WNW,288,0.0,0.9,76,0.00,,,0.00,meteobridge,2013-06-17 02:46:00,
2013-06-16 22:52:00,70.3,62.8,29.83,WNW,288,0.0,0.0,77,0.00,,,0.00,meteobridge,2013-06-17 02:52:00,
2013-06-16 22:57:00,70.2,62.6,29.83,SSW,210,0.0,0.9,77,0.00,,,0.00,meteobridge,2013-06-17 02:57:00,
2013-06-16 23:02:00,70.0,62.4,29.83,West,261,0.0,2.0,77,0.00,,,0.00,meteobridge,2013-06-17 03:02:00,
2013-06-16 23:07:00,70.0,62.4,29.83,SSW,198,0.9,2.9,77,0.00,,,0.00,meteobridge,2013-06-17 03:07:00,
2013-06-16 23:12:00,70.2,62.6,29.83,West,269,0.0,0.9,77,0.00,,,0.00,meteobridge,2013-06-17 03:12:00,
2013-06-16 23:17:00,70.2,62.6,29.83,SW,221,0.0,2.0,77,0.00,,,0.00,meteobridge,2013-06-17 03:17:00,
2013-06-16 23:23:00,70.2,62.6,29.84,SW,221,0.0,0.0,77,0.00,,,0.00,meteobridge,2013-06-17 03:23:00,
2013-06-16 23:28:00,70.0,62.4,29.84,SW,220,0.0,0.0,77,0.00,,,0.00,meteobridge,2013-06-17 03:28:00,
2013-06-16 23:33:00,69.8,62.2,29.84,SW,220,0.0,0.0,77,0.00,,,0.00,meteobridge,2013-06-17 03:33:00,
2013-06-16 23:38:00,69.6,62.4,29.84,South,188,0.0,2.9,78,0.00,,,0.00,meteobridge,2013-06-17 03:38:00,
2013-06-16 23:44:00,69.4,62.2,29.84,South,188,0.9,0.9,78,0.00,,,0.00,meteobridge,2013-06-17 03:44:00,
2013-06-16 23:49:00,69.3,62.4,29.84,South,188,0.0,0.0,79,0.00,,,0.00,meteobridge,2013-06-17 03:49:00,
2013-06-16 23:54:00,69.1,62.2,29.84,South,188,0.0,2.0,79,0.00,,,0.00,meteobridge,2013-06-17 03:54:00,